Terminal Aerodrome Forecast
Issued by NWS

Home | Current Version | Previous Version | Text Only | Print | Product List | Glossary On
Versions: 1 2 3 4 5 6 7 8 9 10 11 12 13 14 15 16 17 18 19 20
000
FTUS41 KPBZ 020802 AAA
TAFZZV
TAF AMD
KZZV 020802Z 0208/0306 00000KT 2SM BR SCT250
      TEMPO 0208/0212 3/4SM BR BKN001
     FM021400 23002KT 4SM BR SCT010 BKN120
     FM021700 36003KT P6SM BKN050
     FM022100 03003KT P6SM SCT050=

USA.gov is the U.S. government's official web portal to all federal, state and local government web resources and services.